Centerton, New Jersey
Current Conditions -  °F | °C
As of 9:54 PM on Sunday 23 Nov 2014 (Local Time) from KMIV Reporting Station
Overcast Overcast  
Wind Chill: 56°   Ceiling: 4800
Heat Index: 56°   Visibility: 10mi
Dew Point: 52°   Wind: 9mph
Humidity: 87%   Direction: 140°SE
Pressure: 30.01"   Gusts: NA
Location:  39.5646°N, 75.1874°W
Report Text: KMIV 240254Z AUTO 14008KT 10SM OVC048 13/11 A3001 RMK AO2 SLP162 T01330111 58036
Loading
Personal Weather Stations






























Interactive Weather Map New forecast layout! Learn more

10-Day Weather Forecast

Advertisements
Track Severe Weather on mobile